sensor_id;sensor_type;location;lat;lon;timestamp;temperature;humidity
23079;DHT22;11707;50.830;4.364;2023-02-01T00:01:38;7.10;99.90
23079;DHT22;11707;50.830;4.364;2023-02-01T00:04:04;7.10;99.90
23079;DHT22;11707;50.830;4.364;2023-02-01T00:06:30;7.00;99.90
23079;DHT22;11707;50.830;4.364;2023-02-01T00:08:56;7.10;99.90
23079;DHT22;11707;50.830;4.364;2023-02-01T00:11:23;7.10;99.90
23079;DHT22;11707;50.830;4.364;2023-02-01T00:13:49;7.10;99.90
23079;DHT22;11707;50.830;4.364;2023-02-01T00:16:21;7.00;99.90
23079;DHT22;11707;50.830;4.364;2023-02-01T00:18:48;7.00;99.90
23079;DHT22;11707;50.830;4.364;2023-02-01T00:21:17;7.10;99.90
23079;DHT22;11707;50.830;4.364;2023-02-01T00:23:43;7.10;99.90
23079;DHT22;11707;50.830;4.364;2023-02-01T00:26:18;7.10;99.90
23079;DHT22;11707;50.830;4.364;2023-02-01T00:28:45;7.10;99.90
23079;DHT22;11707;50.830;4.364;2023-02-01T00:31:11;7.10;99.90
23079;DHT22;11707;50.830;4.364;2023-02-01T00:33:37;7.10;99.90
23079;DHT22;11707;50.830;4.364;2023-02-01T00:36:05;7.10;99.90
23079;DHT22;11707;50.830;4.364;2023-02-01T00:38:32;7.10;99.90
23079;DHT22;11707;50.830;4.364;2023-02-01T00:41:11;7.10;99.90
23079;DHT22;11707;50.830;4.364;2023-02-01T00:43:37;7.10;99.90
23079;DHT22;11707;50.830;4.364;2023-02-01T00:46:02;7.00;99.90
23079;DHT22;11707;50.830;4.364;2023-02-01T00:48:29;7.00;99.90
23079;DHT22;11707;50.830;4.364;2023-02-01T00:50:54;7.00;99.90
23079;DHT22;11707;50.830;4.364;2023-02-01T00:53:23;7.00;99.90
23079;DHT22;11707;50.830;4.364;2023-02-01T00:55:49;6.90;99.90
23079;DHT22;11707;50.830;4.364;2023-02-01T00:58:15;6.90;99.90
23079;DHT22;11707;50.830;4.364;2023-02-01T01:00:41;7.00;99.90
23079;DHT22;11707;50.830;4.364;2023-02-01T01:03:07;7.00;99.90
23079;DHT22;11707;50.830;4.364;2023-02-01T01:05:49;7.00;99.90
23079;DHT22;11707;50.830;4.364;2023-02-01T01:08:15;7.00;99.90
23079;DHT22;11707;50.830;4.364;2023-02-01T01:10:42;6.90;99.90
23079;DHT22;11707;50.830;4.364;2023-02-01T01:13:08;7.00;99.90
23079;DHT22;11707;50.830;4.364;2023-02-01T01:15:41;6.90;99.90
23079;DHT22;11707;50.830;4.364;2023-02-01T01:18:07;6.90;99.90
23079;DHT22;11707;50.830;4.364;2023-02-01T01:20:38;7.00;99.90
23079;DHT22;11707;50.830;4.364;2023-02-01T01:23:05;7.00;99.90
23079;DHT22;11707;50.830;4.364;2023-02-01T01:25:31;7.00;99.90
23079;DHT22;11707;50.830;4.364;2023-02-01T01:27:57;7.00;99.90
23079;DHT22;11707;50.830;4.364;2023-02-01T01:30:23;7.00;99.90
23079;DHT22;11707;50.830;4.364;2023-02-01T01:32:49;7.00;99.90
23079;DHT22;11707;50.830;4.364;2023-02-01T01:35:15;7.00;99.90
23079;DHT22;11707;50.830;4.364;2023-02-01T01:37:40;7.00;99.90
23079;DHT22;11707;50.830;4.364;2023-02-01T01:40:11;7.00;99.90
23079;DHT22;11707;50.830;4.364;2023-02-01T01:42:42;7.00;99.90
23079;DHT22;11707;50.830;4.364;2023-02-01T01:47:58;7.10;99.90
23079;DHT22;11707;50.830;4.364;2023-02-01T01:50:49;7.10;99.90
23079;DHT22;11707;50.830;4.364;2023-02-01T01:53:27;7.10;99.90
23079;DHT22;11707;50.830;4.364;2023-02-01T01:55:54;7.20;99.90
23079;DHT22;11707;50.830;4.364;2023-02-01T01:58:24;7.20;99.90
23079;DHT22;11707;50.830;4.364;2023-02-01T02:00:52;7.20;99.90
23079;DHT22;11707;50.830;4.364;2023-02-01T02:03:22;7.10;99.90
23079;DHT22;11707;50.830;4.364;2023-02-01T02:05:50;7.00;99.90
23079;DHT22;11707;50.830;4.364;2023-02-01T02:08:18;7.10;99.90
23079;DHT22;11707;50.830;4.364;2023-02-01T02:10:47;7.10;99.90
23079;DHT22;11707;50.830;4.364;2023-02-01T02:13:38;7.10;99.90
23079;DHT22;11707;50.830;4.364;2023-02-01T02:36:20;7.10;99.90
23079;DHT22;11707;50.830;4.364;2023-02-01T02:47:52;7.10;99.90
23079;DHT22;11707;50.830;4.364;2023-02-01T02:53:15;7.00;99.90
23079;DHT22;11707;50.830;4.364;2023-02-01T02:56:02;7.00;99.90
23079;DHT22;11707;50.830;4.364;2023-02-01T02:58:48;7.00;99.90
23079;DHT22;11707;50.830;4.364;2023-02-01T03:01:32;7.00;99.90
23079;DHT22;11707;50.830;4.364;2023-02-01T03:04:17;6.90;99.90
23079;DHT22;11707;50.830;4.364;2023-02-01T03:06:46;6.90;99.90
23079;DHT22;11707;50.830;4.364;2023-02-01T03:09:30;6.90;99.90
23079;DHT22;11707;50.830;4.364;2023-02-01T03:12:01;6.80;99.90
23079;DHT22;11707;50.830;4.364;2023-02-01T03:14:52;6.80;99.90
23079;DHT22;11707;50.830;4.364;2023-02-01T03:17:25;6.80;99.90
23079;DHT22;11707;50.830;4.364;2023-02-01T03:19:53;6.80;99.90
23079;DHT22;11707;50.830;4.364;2023-02-01T03:22:23;6.80;99.90
23079;DHT22;11707;50.830;4.364;2023-02-01T03:24:51;6.70;99.90
23079;DHT22;11707;50.830;4.364;2023-02-01T03:32:19;6.70;99.90
23079;DHT22;11707;50.830;4.364;2023-02-01T03:34:46;6.70;99.90
23079;DHT22;11707;50.830;4.364;2023-02-01T03:37:16;6.70;99.90
23079;DHT22;11707;50.830;4.364;2023-02-01T03:39:58;6.60;99.90
23079;DHT22;11707;50.830;4.364;2023-02-01T03:42:37;6.60;99.90
23079;DHT22;11707;50.830;4.364;2023-02-01T03:45:24;6.50;99.90
23079;DHT22;11707;50.830;4.364;2023-02-01T03:47:55;6.50;99.90
23079;DHT22;11707;50.830;4.364;2023-02-01T03:50:22;6.50;99.90
23079;DHT22;11707;50.830;4.364;2023-02-01T03:52:58;6.50;99.90
23079;DHT22;11707;50.830;4.364;2023-02-01T03:55:27;6.50;99.90
23079;DHT22;11707;50.830;4.364;2023-02-01T03:58:15;6.40;99.90
23079;DHT22;11707;50.830;4.364;2023-02-01T04:00:54;6.40;99.90
23079;DHT22;11707;50.830;4.364;2023-02-01T04:03:20;6.40;99.90
23079;DHT22;11707;50.830;4.364;2023-02-01T04:05:48;6.40;99.90
23079;DHT22;11707;50.830;4.364;2023-02-01T04:08:13;6.40;99.90
23079;DHT22;11707;50.830;4.364;2023-02-01T04:10:39;6.30;99.90
23079;DHT22;11707;50.830;4.364;2023-02-01T04:13:05;6.30;99.90
23079;DHT22;11707;50.830;4.364;2023-02-01T04:15:31;6.30;99.90
23079;DHT22;11707;50.830;4.364;2023-02-01T04:17:56;6.30;99.90
23079;DHT22;11707;50.830;4.364;2023-02-01T04:20:22;6.20;99.90
23079;DHT22;11707;50.830;4.364;2023-02-01T04:22:48;6.20;99.90
23079;DHT22;11707;50.830;4.364;2023-02-01T04:25:14;6.20;99.90
23079;DHT22;11707;50.830;4.364;2023-02-01T04:27:39;6.10;99.90
23079;DHT22;11707;50.830;4.364;2023-02-01T04:30:06;6.10;99.90
23079;DHT22;11707;50.830;4.364;2023-02-01T04:32:35;6.00;99.90
23079;DHT22;11707;50.830;4.364;2023-02-01T04:35:02;6.10;99.90
23079;DHT22;11707;50.830;4.364;2023-02-01T04:37:27;5.90;99.90
23079;DHT22;11707;50.830;4.364;2023-02-01T04:39:54;5.90;99.90
23079;DHT22;11707;50.830;4.364;2023-02-01T04:42:20;5.90;99.90
23079;DHT22;11707;50.830;4.364;2023-02-01T04:44:46;5.80;99.90
23079;DHT22;11707;50.830;4.364;2023-02-01T04:47:11;5.80;99.90
23079;DHT22;11707;50.830;4.364;2023-02-01T04:49:37;5.80;99.90
23079;DHT22;11707;50.830;4.364;2023-02-01T04:52:03;5.70;99.90
23079;DHT22;11707;50.830;4.364;2023-02-01T04:54:29;5.70;99.90
23079;DHT22;11707;50.830;4.364;2023-02-01T04:56:55;5.70;99.90
23079;DHT22;11707;50.830;4.364;2023-02-01T04:59:20;5.70;99.90
23079;DHT22;11707;50.830;4.364;2023-02-01T05:01:46;5.60;99.90
23079;DHT22;11707;50.830;4.364;2023-02-01T05:04:12;5.60;99.90
23079;DHT22;11707;50.830;4.364;2023-02-01T05:06:37;5.60;99.90
23079;DHT22;11707;50.830;4.364;2023-02-01T05:09:03;5.60;99.90
23079;DHT22;11707;50.830;4.364;2023-02-01T05:11:29;5.50;99.90
23079;DHT22;11707;50.830;4.364;2023-02-01T05:14:13;5.50;99.90
23079;DHT22;11707;50.830;4.364;2023-02-01T05:16:39;5.50;99.90
23079;DHT22;11707;50.830;4.364;2023-02-01T05:19:04;5.50;99.90
23079;DHT22;11707;50.830;4.364;2023-02-01T05:21:30;5.50;99.90
23079;DHT22;11707;50.830;4.364;2023-02-01T05:23:56;5.40;99.90
23079;DHT22;11707;50.830;4.364;2023-02-01T05:26:45;5.50;99.90
23079;DHT22;11707;50.830;4.364;2023-02-01T05:29:12;5.40;99.90
23079;DHT22;11707;50.830;4.364;2023-02-01T05:31:38;5.40;99.90
23079;DHT22;11707;50.830;4.364;2023-02-01T05:34:04;5.40;99.90
23079;DHT22;11707;50.830;4.364;2023-02-01T05:36:30;5.40;99.90
23079;DHT22;11707;50.830;4.364;2023-02-01T05:38:56;5.40;99.90
23079;DHT22;11707;50.830;4.364;2023-02-01T05:41:21;5.40;99.90
23079;DHT22;11707;50.830;4.364;2023-02-01T05:43:47;5.50;99.90
23079;DHT22;11707;50.830;4.364;2023-02-01T05:46:13;5.40;99.90
23079;DHT22;11707;50.830;4.364;2023-02-01T05:48:40;5.40;99.90
23079;DHT22;11707;50.830;4.364;2023-02-01T05:51:05;5.40;99.90
23079;DHT22;11707;50.830;4.364;2023-02-01T05:53:31;5.40;99.90
23079;DHT22;11707;50.830;4.364;2023-02-01T05:55:57;5.30;99.90
23079;DHT22;11707;50.830;4.364;2023-02-01T05:58:23;5.30;99.90
23079;DHT22;11707;50.830;4.364;2023-02-01T06:00:48;5.20;99.90
23079;DHT22;11707;50.830;4.364;2023-02-01T06:03:14;5.20;99.90
23079;DHT22;11707;50.830;4.364;2023-02-01T06:05:40;5.10;99.90
23079;DHT22;11707;50.830;4.364;2023-02-01T06:08:08;5.20;99.90
23079;DHT22;11707;50.830;4.364;2023-02-01T06:10:34;5.20;99.90
23079;DHT22;11707;50.830;4.364;2023-02-01T06:13:00;5.20;99.90
23079;DHT22;11707;50.830;4.364;2023-02-01T06:15:25;5.20;99.90
23079;DHT22;11707;50.830;4.364;2023-02-01T06:17:51;5.20;99.90
23079;DHT22;11707;50.830;4.364;2023-02-01T06:20:17;5.20;99.90
23079;DHT22;11707;50.830;4.364;2023-02-01T06:22:43;5.10;99.90
23079;DHT22;11707;50.830;4.364;2023-02-01T06:25:10;5.10;99.90
23079;DHT22;11707;50.830;4.364;2023-02-01T06:27:35;5.10;99.90
23079;DHT22;11707;50.830;4.364;2023-02-01T06:30:03;5.10;99.90
23079;DHT22;11707;50.830;4.364;2023-02-01T06:32:29;5.10;99.90
23079;DHT22;11707;50.830;4.364;2023-02-01T06:34:54;5.10;99.90
23079;DHT22;11707;50.830;4.364;2023-02-01T06:37:22;5.10;99.90
23079;DHT22;11707;50.830;4.364;2023-02-01T06:39:48;5.10;99.90
23079;DHT22;11707;50.830;4.364;2023-02-01T06:42:15;5.10;99.90
23079;DHT22;11707;50.830;4.364;2023-02-01T06:44:40;5.10;99.90
23079;DHT22;11707;50.830;4.364;2023-02-01T06:47:06;5.10;99.90
23079;DHT22;11707;50.830;4.364;2023-02-01T06:49:32;5.10;99.90
23079;DHT22;11707;50.830;4.364;2023-02-01T06:51:58;5.10;99.90
23079;DHT22;11707;50.830;4.364;2023-02-01T06:54:26;5.10;99.90
23079;DHT22;11707;50.830;4.364;2023-02-01T06:56:52;5.10;99.90
23079;DHT22;11707;50.830;4.364;2023-02-01T06:59:17;5.10;99.90
23079;DHT22;11707;50.830;4.364;2023-02-01T07:01:43;5.10;99.90
23079;DHT22;11707;50.830;4.364;2023-02-01T07:04:11;5.00;99.90
23079;DHT22;11707;50.830;4.364;2023-02-01T07:06:37;5.10;99.90
23079;DHT22;11707;50.830;4.364;2023-02-01T07:09:03;5.10;99.90
23079;DHT22;11707;50.830;4.364;2023-02-01T07:38:34;5.00;99.90
23079;DHT22;11707;50.830;4.364;2023-02-01T07:41:01;4.90;99.90
23079;DHT22;11707;50.830;4.364;2023-02-01T07:43:28;4.90;99.90
23079;DHT22;11707;50.830;4.364;2023-02-01T07:45:55;5.00;99.90
23079;DHT22;11707;50.830;4.364;2023-02-01T07:48:22;5.00;99.90
23079;DHT22;11707;50.830;4.364;2023-02-01T07:50:48;5.00;99.90
23079;DHT22;11707;50.830;4.364;2023-02-01T07:53:14;5.00;99.90
23079;DHT22;11707;50.830;4.364;2023-02-01T07:55:40;5.10;99.90
23079;DHT22;11707;50.830;4.364;2023-02-01T07:58:06;5.10;99.90
23079;DHT22;11707;50.830;4.364;2023-02-01T08:00:32;5.10;99.90
23079;DHT22;11707;50.830;4.364;2023-02-01T08:03:16;5.10;99.90
23079;DHT22;11707;50.830;4.364;2023-02-01T08:05:42;5.10;99.90
23079;DHT22;11707;50.830;4.364;2023-02-01T08:08:07;5.10;99.90
23079;DHT22;11707;50.830;4.364;2023-02-01T08:10:33;5.20;99.90
23079;DHT22;11707;50.830;4.364;2023-02-01T08:13:01;5.20;99.90
23079;DHT22;11707;50.830;4.364;2023-02-01T08:15:28;5.20;99.90
23079;DHT22;11707;50.830;4.364;2023-02-01T08:17:54;5.10;99.90
23079;DHT22;11707;50.830;4.364;2023-02-01T08:20:21;5.10;99.90
23079;DHT22;11707;50.830;4.364;2023-02-01T08:22:52;5.10;99.90
23079;DHT22;11707;50.830;4.364;2023-02-01T08:25:18;5.20;99.90
23079;DHT22;11707;50.830;4.364;2023-02-01T08:27:44;5.10;99.90
23079;DHT22;11707;50.830;4.364;2023-02-01T08:30:11;5.10;99.90
23079;DHT22;11707;50.830;4.364;2023-02-01T08:32:37;5.10;99.90
23079;DHT22;11707;50.830;4.364;2023-02-01T08:35:04;5.20;99.90
23079;DHT22;11707;50.830;4.364;2023-02-01T08:37:30;5.20;99.90
23079;DHT22;11707;50.830;4.364;2023-02-01T08:39:56;5.10;99.90
23079;DHT22;11707;50.830;4.364;2023-02-01T08:42:22;5.20;99.90
23079;DHT22;11707;50.830;4.364;2023-02-01T08:45:28;5.30;99.90
23079;DHT22;11707;50.830;4.364;2023-02-01T08:47:56;5.30;99.90
23079;DHT22;11707;50.830;4.364;2023-02-01T08:50:22;5.40;99.90
23079;DHT22;11707;50.830;4.364;2023-02-01T08:52:49;5.40;99.90
23079;DHT22;11707;50.830;4.364;2023-02-01T08:55:15;5.40;99.90
23079;DHT22;11707;50.830;4.364;2023-02-01T08:57:41;5.40;99.90
23079;DHT22;11707;50.830;4.364;2023-02-01T09:00:10;5.40;99.90
23079;DHT22;11707;50.830;4.364;2023-02-01T09:02:37;5.50;99.90
23079;DHT22;11707;50.830;4.364;2023-02-01T09:05:04;5.50;99.90
23079;DHT22;11707;50.830;4.364;2023-02-01T09:07:30;5.60;99.90
23079;DHT22;11707;50.830;4.364;2023-02-01T09:09:56;5.70;99.90
23079;DHT22;11707;50.830;4.364;2023-02-01T09:12:25;5.80;99.90
23079;DHT22;11707;50.830;4.364;2023-02-01T09:14:51;5.80;99.90
23079;DHT22;11707;50.830;4.364;2023-02-01T09:17:16;5.80;99.90
23079;DHT22;11707;50.830;4.364;2023-02-01T09:19:42;5.90;99.90
23079;DHT22;11707;50.830;4.364;2023-02-01T09:22:08;5.90;99.90
23079;DHT22;11707;50.830;4.364;2023-02-01T09:24:34;6.00;99.90
23079;DHT22;11707;50.830;4.364;2023-02-01T09:26:59;6.00;99.90
23079;DHT22;11707;50.830;4.364;2023-02-01T09:29:25;6.10;99.90
23079;DHT22;11707;50.830;4.364;2023-02-01T09:31:51;6.10;99.90
23079;DHT22;11707;50.830;4.364;2023-02-01T09:34:16;6.20;99.90
23079;DHT22;11707;50.830;4.364;2023-02-01T09:36:42;6.30;99.90
23079;DHT22;11707;50.830;4.364;2023-02-01T09:39:08;6.30;99.90
23079;DHT22;11707;50.830;4.364;2023-02-01T09:42:24;6.40;99.90
23079;DHT22;11707;50.830;4.364;2023-02-01T09:44:44;6.40;99.90
23079;DHT22;11707;50.830;4.364;2023-02-01T09:47:17;6.50;99.90
23079;DHT22;11707;50.830;4.364;2023-02-01T09:50:09;6.50;99.90
23079;DHT22;11707;50.830;4.364;2023-02-01T09:52:48;6.50;99.90
23079;DHT22;11707;50.830;4.364;2023-02-01T09:58:07;6.70;99.90
23079;DHT22;11707;50.830;4.364;2023-02-01T10:00:38;6.70;99.90
23079;DHT22;11707;50.830;4.364;2023-02-01T10:03:05;6.80;99.90
23079;DHT22;11707;50.830;4.364;2023-02-01T10:11:04;7.00;99.90
23079;DHT22;11707;50.830;4.364;2023-02-01T10:14:29;7.10;99.90
23079;DHT22;11707;50.830;4.364;2023-02-01T10:16:52;7.20;99.90
23079;DHT22;11707;50.830;4.364;2023-02-01T10:21:57;7.30;99.90
23079;DHT22;11707;50.830;4.364;2023-02-01T10:24:42;7.30;99.90
23079;DHT22;11707;50.830;4.364;2023-02-01T10:27:21;7.40;99.90
23079;DHT22;11707;50.830;4.364;2023-02-01T10:30:40;7.40;99.90
23079;DHT22;11707;50.830;4.364;2023-02-01T10:32:40;7.60;99.90
23079;DHT22;11707;50.830;4.364;2023-02-01T10:35:18;7.70;99.90
23079;DHT22;11707;50.830;4.364;2023-02-01T10:37:46;7.60;99.90
23079;DHT22;11707;50.830;4.364;2023-02-01T10:40:23;7.60;99.90
23079;DHT22;11707;50.830;4.364;2023-02-01T10:42:52;7.70;99.90
23079;DHT22;11707;50.830;4.364;2023-02-01T10:45:22;7.70;99.90
23079;DHT22;11707;50.830;4.364;2023-02-01T10:47:49;7.80;99.90
23079;DHT22;11707;50.830;4.364;2023-02-01T10:52:58;7.90;99.90
23079;DHT22;11707;50.830;4.364;2023-02-01T10:55:29;8.00;99.90
23079;DHT22;11707;50.830;4.364;2023-02-01T10:58:04;8.10;99.90
23079;DHT22;11707;50.830;4.364;2023-02-01T11:01:02;8.20;99.90
23079;DHT22;11707;50.830;4.364;2023-02-01T11:03:54;8.30;99.90
23079;DHT22;11707;50.830;4.364;2023-02-01T11:06:31;8.40;99.90
23079;DHT22;11707;50.830;4.364;2023-02-01T11:08:59;8.40;99.90
23079;DHT22;11707;50.830;4.364;2023-02-01T11:11:26;8.40;99.90
23079;DHT22;11707;50.830;4.364;2023-02-01T11:13:58;8.30;99.90
23079;DHT22;11707;50.830;4.364;2023-02-01T11:16:53;8.30;99.90
23079;DHT22;11707;50.830;4.364;2023-02-01T11:19:19;8.40;99.90
23079;DHT22;11707;50.830;4.364;2023-02-01T11:21:50;8.40;99.90
23079;DHT22;11707;50.830;4.364;2023-02-01T11:24:33;8.50;99.90
23079;DHT22;11707;50.830;4.364;2023-02-01T11:27:05;8.60;99.90
23079;DHT22;11707;50.830;4.364;2023-02-01T11:29:40;8.70;99.90
23079;DHT22;11707;50.830;4.364;2023-02-01T11:32:08;8.70;99.90
23079;DHT22;11707;50.830;4.364;2023-02-01T11:34:39;8.80;99.90
23079;DHT22;11707;50.830;4.364;2023-02-01T11:37:57;8.90;99.90
23079;DHT22;11707;50.830;4.364;2023-02-01T11:40:29;8.90;99.90
23079;DHT22;11707;50.830;4.364;2023-02-01T11:43:01;8.80;99.90
23079;DHT22;11707;50.830;4.364;2023-02-01T11:45:33;8.70;99.90
23079;DHT22;11707;50.830;4.364;2023-02-01T11:48:00;8.80;99.90
23079;DHT22;11707;50.830;4.364;2023-02-01T11:55:52;8.90;99.90
23079;DHT22;11707;50.830;4.364;2023-02-01T12:06:54;8.80;99.90
23079;DHT22;11707;50.830;4.364;2023-02-01T12:11:56;9.00;99.90
23079;DHT22;11707;50.830;4.364;2023-02-01T12:14:36;9.00;99.90
23079;DHT22;11707;50.830;4.364;2023-02-01T12:22:52;9.00;99.90
23079;DHT22;11707;50.830;4.364;2023-02-01T12:36:34;9.40;99.90
23079;DHT22;11707;50.830;4.364;2023-02-01T12:39:31;9.50;99.90
23079;DHT22;11707;50.830;4.364;2023-02-01T12:42:18;9.60;99.90
23079;DHT22;11707;50.830;4.364;2023-02-01T12:44:55;9.60;99.90
23079;DHT22;11707;50.830;4.364;2023-02-01T12:47:39;9.60;99.90
23079;DHT22;11707;50.830;4.364;2023-02-01T12:52:53;9.80;99.90
23079;DHT22;11707;50.830;4.364;2023-02-01T12:55:38;9.90;99.90
23079;DHT22;11707;50.830;4.364;2023-02-01T12:58:13;9.90;99.90
23079;DHT22;11707;50.830;4.364;2023-02-01T13:00:43;9.90;99.90
23079;DHT22;11707;50.830;4.364;2023-02-01T13:03:37;9.90;99.90
23079;DHT22;11707;50.830;4.364;2023-02-01T13:06:19;10.00;99.90
23079;DHT22;11707;50.830;4.364;2023-02-01T13:09:08;9.90;99.90
23079;DHT22;11707;50.830;4.364;2023-02-01T13:11:38;10.10;99.90
23079;DHT22;11707;50.830;4.364;2023-02-01T13:14:33;10.20;99.90
23079;DHT22;11707;50.830;4.364;2023-02-01T13:17:33;10.30;99.90
23079;DHT22;11707;50.830;4.364;2023-02-01T13:20:29;10.40;99.90
23079;DHT22;11707;50.830;4.364;2023-02-01T13:25:47;10.40;99.90
23079;DHT22;11707;50.830;4.364;2023-02-01T13:40:22;10.30;99.90
23079;DHT22;11707;50.830;4.364;2023-02-01T13:43:05;10.30;99.90
23079;DHT22;11707;50.830;4.364;2023-02-01T13:45:34;10.20;99.90
23079;DHT22;11707;50.830;4.364;2023-02-01T13:48:04;10.20;99.90
23079;DHT22;11707;50.830;4.364;2023-02-01T13:50:33;10.20;99.90
23079;DHT22;11707;50.830;4.364;2023-02-01T13:53:17;10.20;99.90
23079;DHT22;11707;50.830;4.364;2023-02-01T13:55:46;10.20;99.90
23079;DHT22;11707;50.830;4.364;2023-02-01T13:58:18;10.10;99.90
23079;DHT22;11707;50.830;4.364;2023-02-01T14:00:46;10.10;99.90
23079;DHT22;11707;50.830;4.364;2023-02-01T14:03:17;10.30;99.90
23079;DHT22;11707;50.830;4.364;2023-02-01T14:08:14;10.70;99.90
23079;DHT22;11707;50.830;4.364;2023-02-01T14:10:56;10.70;99.90
23079;DHT22;11707;50.830;4.364;2023-02-01T14:24:01;11.00;99.90
23079;DHT22;11707;50.830;4.364;2023-02-01T14:28:58;10.30;99.90
23079;DHT22;11707;50.830;4.364;2023-02-01T14:31:40;10.10;99.90
23079;DHT22;11707;50.830;4.364;2023-02-01T14:37:04;10.00;99.90
23079;DHT22;11707;50.830;4.364;2023-02-01T14:44:51;9.80;99.90
23079;DHT22;11707;50.830;4.364;2023-02-01T14:52:46;9.70;99.90
23079;DHT22;11707;50.830;4.364;2023-02-01T14:55:37;9.80;99.90
23079;DHT22;11707;50.830;4.364;2023-02-01T15:01:21;9.80;99.90
23079;DHT22;11707;50.830;4.364;2023-02-01T15:06:51;9.80;99.90
23079;DHT22;11707;50.830;4.364;2023-02-01T15:09:24;9.70;99.90
23079;DHT22;11707;50.830;4.364;2023-02-01T15:12:00;9.70;99.90
23079;DHT22;11707;50.830;4.364;2023-02-01T15:14:28;9.70;99.90
23079;DHT22;11707;50.830;4.364;2023-02-01T15:16:54;9.60;99.90
23079;DHT22;11707;50.830;4.364;2023-02-01T15:19:23;9.60;99.90
23079;DHT22;11707;50.830;4.364;2023-02-01T15:21:51;9.50;99.90
23079;DHT22;11707;50.830;4.364;2023-02-01T15:24:28;9.50;99.90
23079;DHT22;11707;50.830;4.364;2023-02-01T15:26:55;9.40;99.90
23079;DHT22;11707;50.830;4.364;2023-02-01T15:29:23;9.50;99.90
23079;DHT22;11707;50.830;4.364;2023-02-01T15:31:53;9.40;99.90
23079;DHT22;11707;50.830;4.364;2023-02-01T15:34:19;9.40;99.90
23079;DHT22;11707;50.830;4.364;2023-02-01T15:36:46;9.40;99.90
23079;DHT22;11707;50.830;4.364;2023-02-01T15:41:58;9.30;99.90
23079;DHT22;11707;50.830;4.364;2023-02-01T15:44:41;9.30;99.90
23079;DHT22;11707;50.830;4.364;2023-02-01T15:47:17;9.30;99.90
23079;DHT22;11707;50.830;4.364;2023-02-01T15:49:47;9.30;99.90
23079;DHT22;11707;50.830;4.364;2023-02-01T15:52:26;9.30;99.90
23079;DHT22;11707;50.830;4.364;2023-02-01T15:54:59;9.20;99.90
23079;DHT22;11707;50.830;4.364;2023-02-01T15:57:38;9.20;99.90
23079;DHT22;11707;50.830;4.364;2023-02-01T16:00:24;9.20;99.90
23079;DHT22;11707;50.830;4.364;2023-02-01T16:02:55;9.30;99.90
23079;DHT22;11707;50.830;4.364;2023-02-01T16:05:40;9.30;99.90
23079;DHT22;11707;50.830;4.364;2023-02-01T16:08:20;9.30;99.90
23079;DHT22;11707;50.830;4.364;2023-02-01T16:10:50;9.20;99.90
23079;DHT22;11707;50.830;4.364;2023-02-01T16:13:18;9.20;99.90
23079;DHT22;11707;50.830;4.364;2023-02-01T16:15:44;9.10;99.90
23079;DHT22;11707;50.830;4.364;2023-02-01T16:18:11;9.10;99.90
23079;DHT22;11707;50.830;4.364;2023-02-01T16:20:39;9.10;99.90
23079;DHT22;11707;50.830;4.364;2023-02-01T16:23:06;9.10;99.90
23079;DHT22;11707;50.830;4.364;2023-02-01T16:25:33;9.10;99.90
23079;DHT22;11707;50.830;4.364;2023-02-01T16:27:59;9.10;99.90
23079;DHT22;11707;50.830;4.364;2023-02-01T16:30:25;9.10;99.90
23079;DHT22;11707;50.830;4.364;2023-02-01T16:32:55;9.20;99.90
23079;DHT22;11707;50.830;4.364;2023-02-01T16:37:49;9.10;99.90
23079;DHT22;11707;50.830;4.364;2023-02-01T16:40:17;9.10;99.90
23079;DHT22;11707;50.830;4.364;2023-02-01T16:42:45;9.10;99.90
23079;DHT22;11707;50.830;4.364;2023-02-01T16:45:12;9.00;99.90
23079;DHT22;11707;50.830;4.364;2023-02-01T16:47:38;9.00;99.90
23079;DHT22;11707;50.830;4.364;2023-02-01T16:50:18;9.00;99.90
23079;DHT22;11707;50.830;4.364;2023-02-01T16:52:44;9.00;99.90
23079;DHT22;11707;50.830;4.364;2023-02-01T16:55:18;8.90;99.90
23079;DHT22;11707;50.830;4.364;2023-02-01T16:57:44;8.90;99.90
23079;DHT22;11707;50.830;4.364;2023-02-01T17:00:12;8.90;99.90
23079;DHT22;11707;50.830;4.364;2023-02-01T17:02:38;8.90;99.90
23079;DHT22;11707;50.830;4.364;2023-02-01T17:05:05;9.00;99.90
23079;DHT22;11707;50.830;4.364;2023-02-01T17:07:31;8.90;99.90
23079;DHT22;11707;50.830;4.364;2023-02-01T17:09:57;8.80;99.90
23079;DHT22;11707;50.830;4.364;2023-02-01T17:12:28;8.90;99.90
23079;DHT22;11707;50.830;4.364;2023-02-01T17:14:56;8.90;99.90
23079;DHT22;11707;50.830;4.364;2023-02-01T17:17:23;8.90;99.90
23079;DHT22;11707;50.830;4.364;2023-02-01T17:19:51;8.90;99.90
23079;DHT22;11707;50.830;4.364;2023-02-01T17:22:19;8.80;99.90
23079;DHT22;11707;50.830;4.364;2023-02-01T17:24:46;8.80;99.90
23079;DHT22;11707;50.830;4.364;2023-02-01T17:27:12;8.80;99.90
23079;DHT22;11707;50.830;4.364;2023-02-01T17:29:37;8.70;99.90
23079;DHT22;11707;50.830;4.364;2023-02-01T17:32:03;8.70;99.90
23079;DHT22;11707;50.830;4.364;2023-02-01T17:34:29;8.60;99.90
23079;DHT22;11707;50.830;4.364;2023-02-01T17:36:55;8.60;99.90
23079;DHT22;11707;50.830;4.364;2023-02-01T17:39:21;8.60;99.90
23079;DHT22;11707;50.830;4.364;2023-02-01T17:42:09;8.60;99.90
23079;DHT22;11707;50.830;4.364;2023-02-01T17:44:36;8.60;99.90
23079;DHT22;11707;50.830;4.364;2023-02-01T17:47:02;8.60;99.90
23079;DHT22;11707;50.830;4.364;2023-02-01T17:49:28;8.50;99.90
23079;DHT22;11707;50.830;4.364;2023-02-01T17:51:55;8.50;99.90
23079;DHT22;11707;50.830;4.364;2023-02-01T17:54:22;8.50;99.90
23079;DHT22;11707;50.830;4.364;2023-02-01T17:56:47;8.40;99.90
23079;DHT22;11707;50.830;4.364;2023-02-01T17:59:14;8.50;99.90
23079;DHT22;11707;50.830;4.364;2023-02-01T18:01:40;8.40;99.90
23079;DHT22;11707;50.830;4.364;2023-02-01T18:04:18;8.50;99.90
23079;DHT22;11707;50.830;4.364;2023-02-01T18:06:44;8.60;99.90
23079;DHT22;11707;50.830;4.364;2023-02-01T18:09:09;8.60;99.90
23079;DHT22;11707;50.830;4.364;2023-02-01T18:11:35;8.60;99.90
23079;DHT22;11707;50.830;4.364;2023-02-01T18:14:01;8.60;99.90
23079;DHT22;11707;50.830;4.364;2023-02-01T18:16:30;8.60;99.90
23079;DHT22;11707;50.830;4.364;2023-02-01T18:18:56;8.60;99.90
23079;DHT22;11707;50.830;4.364;2023-02-01T18:21:30;8.60;99.90
23079;DHT22;11707;50.830;4.364;2023-02-01T18:23:57;8.70;99.90
23079;DHT22;11707;50.830;4.364;2023-02-01T18:26:23;8.70;99.90
23079;DHT22;11707;50.830;4.364;2023-02-01T18:28:49;8.70;99.90
23079;DHT22;11707;50.830;4.364;2023-02-01T18:31:26;8.60;99.90
23079;DHT22;11707;50.830;4.364;2023-02-01T18:33:54;8.60;99.90
23079;DHT22;11707;50.830;4.364;2023-02-01T18:36:20;8.60;99.90
23079;DHT22;11707;50.830;4.364;2023-02-01T18:38:47;8.60;99.90
23079;DHT22;11707;50.830;4.364;2023-02-01T18:41:15;8.60;99.90
23079;DHT22;11707;50.830;4.364;2023-02-01T18:43:42;8.60;99.90
23079;DHT22;11707;50.830;4.364;2023-02-01T18:46:09;8.50;99.90
23079;DHT22;11707;50.830;4.364;2023-02-01T18:48:35;8.50;99.90
23079;DHT22;11707;50.830;4.364;2023-02-01T18:51:01;8.50;99.90
23079;DHT22;11707;50.830;4.364;2023-02-01T19:08:09;8.50;99.90
23079;DHT22;11707;50.830;4.364;2023-02-01T19:10:35;8.70;99.90
23079;DHT22;11707;50.830;4.364;2023-02-01T19:13:03;8.70;99.90